PWSweather.com
Personal Weather Stations
Station Observations
VILLANIGRA
MiasinoIT 28010

MiasinoIT 28010

Lat: 45.801965, Lon: 8.430749999999989

Elevation: 1640

Station Type: PCE-FWS 20

http://federicomoro.net/pws/

Latest ConditionsUpdated 10:00:00 PM GMT+01:01 Sunday, Jan 19, 2020
Currently Today's Max Today's Min Today's Average
Temperature 33.4°F0.8°C 50.9°F10.5°C 27.7°F-2.4°C 37.2°F2.9°C
Dew Point 11.2°F-11.6°C 21.6°F-5.8°C 7.4°F-13.7°C 13.3°F-10.4°C
Winds Calm Calm 6.9 mph -11.1 kmh - - 1.6 mph 2.6 kmh
Wind Gusts 2.2 mph3.5 kmh 15.2 mph24.5 kmh - -
Humidity 39% 56% 20% 40%
Pressure 30.31 in1026.4 mb 30.31 in1026.4 mb 30.02 in1016.6 mb -
Hour Temp Dew Point Humidity Winds Wind Gusts Pressure Precip Precip Rate Daily Precip Total
10:00 PM 33.4°F0.8°C 11.2°F-11.6°C 39% Calm Calm 2.2 mph3.5 kmh 30.31 in1026.4 mb 0.00 in0.0 mm 0.00 in0.0 mm 0.00 in0.0 mm
09:45 PM 33.3°F0.7°C 12.7°F-10.7°C 42% Calm Calm 2.2 mph3.5 kmh 30.31 in1026.4 mb 0.00 in0.0 mm 0.00 in0.0 mm 0.00 in0.0 mm
09:30 PM 33.1°F0.6°C 12.5°F-10.8°C 42% Calm Calm -- 30.30 in1026.1 mb 0.00 in0.0 mm 0.00 in0.0 mm 0.00 in0.0 mm
09:15 PM 34.2°F1.2°C 11.2°F-11.6°C 38% Calm Calm -- 30.30 in1026.1 mb 0.00 in0.0 mm 0.00 in0.0 mm 0.00 in0.0 mm
09:00 PM 35.6°F2.0°C 8.7°F-12.9°C 32% Calm Calm -- 30.29 in1025.7 mb 0.00 in0.0 mm 0.00 in0.0 mm 0.00 in0.0 mm
08:45 PM 36.0°F2.2°C 10.4°F-12.0°C 34% Calm Calm 3.1 mph5.0 kmh 30.29 in1025.7 mb 0.00 in0.0 mm 0.00 in0.0 mm 0.00 in0.0 mm
08:30 PM 35.8°F2.1°C 12.7°F-10.7°C 38% Calm Calm 2.2 mph3.5 kmh 30.29 in1025.7 mb 0.00 in0.0 mm 0.00 in0.0 mm 0.00 in0.0 mm
08:15 PM 34.3°F1.3°C 13.1°F-10.5°C 41% Calm Calm 0.7 mph1.1 kmh 30.28 in1025.4 mb 0.00 in0.0 mm 0.00 in0.0 mm 0.00 in0.0 mm
08:00 PM 34.7°F1.5°C 14.0°F-10.0°C 42% Calm Calm 2.2 mph3.5 kmh 30.27 in1025.1 mb 0.00 in0.0 mm 0.00 in0.0 mm 0.00 in0.0 mm
07:45 PM 34.5°F1.4°C 15.4°F-9.2°C 45% Calm Calm 1.6 mph2.6 kmh 30.26 in1024.7 mb 0.00 in0.0 mm 0.00 in0.0 mm 0.00 in0.0 mm
07:30 PM 36.9°F2.7°C 19.0°F-7.2°C 48% Calm Calm -- 30.25 in1024.4 mb 0.00 in0.0 mm 0.00 in0.0 mm 0.00 in0.0 mm
07:15 PM 38.1°F3.4°C 21.6°F-5.8°C 51% Calm Calm -- 30.25 in1024.4 mb 0.00 in0.0 mm 0.00 in0.0 mm 0.00 in0.0 mm
07:00 PM 38.8°F3.8°C 20.8°F-6.2°C 48% Calm Calm -- 30.24 in1024.0 mb 0.00 in0.0 mm 0.00 in0.0 mm 0.00 in0.0 mm
06:45 PM 39.7°F4.3°C 18.5°F-7.5°C 42% Calm Calm 3.1 mph5.0 kmh 30.23 in1023.7 mb 0.00 in0.0 mm 0.00 in0.0 mm 0.00 in0.0 mm
06:30 PM 39.6°F4.2°C 11.5°F-11.4°C 31% Calm Calm -- 30.22 in1023.4 mb 0.00 in0.0 mm 0.00 in0.0 mm 0.00 in0.0 mm
06:15 PM 40.8°F4.9°C 12.6°F-10.8°C 31% Calm Calm 2.2 mph3.5 kmh 30.21 in1023.0 mb 0.00 in0.0 mm 0.00 in0.0 mm 0.00 in0.0 mm
06:00 PM 41.5°F5.3°C 10.9°F-11.7°C 28% Calm Calm 2.2 mph3.5 kmh 30.21 in1023.0 mb 0.00 in0.0 mm 0.00 in0.0 mm 0.00 in0.0 mm
05:45 PM 42.6°F5.9°C 10.2°F-12.1°C 26% Calm Calm 6.0 mph9.7 kmh 30.20 in1022.7 mb 0.00 in0.0 mm 0.00 in0.0 mm 0.00 in0.0 mm
05:30 PM 42.6°F5.9°C 10.2°F-12.1°C 26% 6.9 mph NE11.1 kmh NE 9.2 mph14.8 kmh 30.19 in1022.4 mb 0.00 in0.0 mm 0.00 in0.0 mm 0.00 in0.0 mm
05:15 PM 43.3°F6.3°C 9.9°F-12.3°C 25% 6.0 mph NE9.7 kmh NE 14.5 mph23.3 kmh 30.18 in1022.0 mb 0.00 in0.0 mm 0.00 in0.0 mm 0.00 in0.0 mm
05:00 PM 43.7°F6.5°C 9.3°F-12.6°C 24% 6.0 mph NE9.7 kmh NE 13.6 mph21.9 kmh 30.18 in1022.0 mb 0.00 in0.0 mm 0.00 in0.0 mm 0.00 in0.0 mm
04:45 PM 44.4°F6.9°C 8.0°F-13.3°C 22% 5.4 mph NE8.7 kmh NE 14.5 mph23.3 kmh 30.17 in1021.7 mb 0.00 in0.0 mm 0.00 in0.0 mm 0.00 in0.0 mm
04:30 PM 45.1°F7.3°C 7.6°F-13.6°C 21% 6.0 mph NE9.7 kmh NE 13.6 mph21.9 kmh 30.16 in1021.3 mb 0.00 in0.0 mm 0.00 in0.0 mm 0.00 in0.0 mm
04:15 PM 45.7°F7.6°C 8.0°F-13.3°C 21% 5.4 mph NE8.7 kmh NE 13.6 mph21.9 kmh 30.16 in1021.3 mb 0.00 in0.0 mm 0.00 in0.0 mm 0.00 in0.0 mm
04:00 PM 46.2°F7.9°C 7.4°F-13.7°C 20% 3.1 mph NE5.0 kmh NE 12.1 mph19.5 kmh 30.15 in1021.0 mb 0.00 in0.0 mm 0.00 in0.0 mm 0.00 in0.0 mm
03:45 PM 46.8°F8.2°C 10.0°F-12.2°C 22% 5.4 mph NE8.7 kmh NE 15.2 mph24.5 kmh 30.15 in1021.0 mb 0.00 in0.0 mm 0.00 in0.0 mm 0.00 in0.0 mm
03:30 PM 47.7°F8.7°C 10.7°F-11.8°C 22% 5.4 mph NE8.7 kmh NE 12.1 mph19.5 kmh 30.14 in1020.7 mb 0.00 in0.0 mm 0.00 in0.0 mm 0.00 in0.0 mm
03:15 PM 49.1°F9.5°C 10.9°F-11.7°C 21% 6.9 mph NE11.1 kmh NE 9.2 mph14.8 kmh 30.15 in1021.0 mb 0.00 in0.0 mm 0.00 in0.0 mm 0.00 in0.0 mm
03:00 PM 50.0°F10.0°C 10.5°F-11.9°C 20% 1.6 mph N2.6 kmh N 6.0 mph9.7 kmh 30.13 in1020.3 mb 0.00 in0.0 mm 0.00 in0.0 mm 0.00 in0.0 mm
02:45 PM 49.5°F9.7°C 11.2°F-11.6°C 21% Calm Calm 8.3 mph13.4 kmh 30.13 in1020.3 mb 0.00 in0.0 mm 0.00 in0.0 mm 0.00 in0.0 mm
02:30 PM 49.5°F9.7°C 11.2°F-11.6°C 21% 0.7 mph NE1.1 kmh NE 4.5 mph7.2 kmh 30.13 in1020.3 mb 0.00 in0.0 mm 0.00 in0.0 mm 0.00 in0.0 mm
02:15 PM 49.1°F9.5°C 10.9°F-11.7°C 21% 0.7 mph ENE1.1 kmh ENE 8.3 mph13.4 kmh 30.12 in1020.0 mb 0.00 in0.0 mm 0.00 in0.0 mm 0.00 in0.0 mm
02:00 PM 48.9°F9.4°C 10.7°F-11.8°C 21% 3.1 mph NE5.0 kmh NE 9.2 mph14.8 kmh 30.12 in1020.0 mb 0.00 in0.0 mm 0.00 in0.0 mm 0.00 in0.0 mm
01:45 PM 49.1°F9.5°C 10.9°F-11.7°C 21% 5.4 mph NE8.7 kmh NE 10.7 mph17.2 kmh 30.12 in1020.0 mb 0.00 in0.0 mm 0.00 in0.0 mm 0.00 in0.0 mm
01:30 PM 50.2°F10.1°C 10.7°F-11.8°C 20% 4.5 mph NNE7.2 kmh NNE 6.0 mph9.7 kmh 30.12 in1020.0 mb 0.00 in0.0 mm 0.00 in0.0 mm 0.00 in0.0 mm
01:15 PM 49.5°F9.7°C 11.2°F-11.6°C 21% 4.5 mph NE7.2 kmh NE 7.6 mph12.2 kmh 30.13 in1020.3 mb 0.00 in0.0 mm 0.00 in0.0 mm 0.00 in0.0 mm
01:00 PM 49.8°F9.9°C 11.5°F-11.4°C 21% 2.2 mph NE3.5 kmh NE 10.7 mph17.2 kmh 30.13 in1020.3 mb 0.00 in0.0 mm 0.00 in0.0 mm 0.00 in0.0 mm
12:45 PM 50.9°F10.5°C 11.3°F-11.5°C 20% 2.2 mph SSW3.5 kmh SSW 5.4 mph8.7 kmh 30.13 in1020.3 mb 0.00 in0.0 mm 0.00 in0.0 mm 0.00 in0.0 mm
12:30 PM 50.7°F10.4°C 11.1°F-11.6°C 20% 2.2 mph S3.5 kmh S 4.5 mph7.2 kmh 30.14 in1020.7 mb 0.00 in0.0 mm 0.00 in0.0 mm 0.00 in0.0 mm
12:15 PM 48.0°F8.9°C 13.0°F-10.6°C 24% 1.6 mph WSW2.6 kmh WSW 5.4 mph8.7 kmh 30.14 in1020.7 mb 0.00 in0.0 mm 0.00 in0.0 mm 0.00 in0.0 mm
12:00 PM 46.8°F8.2°C 12.8°F-10.7°C 25% 3.1 mph WSW5.0 kmh WSW 6.0 mph9.7 kmh 30.14 in1020.7 mb 0.00 in0.0 mm 0.00 in0.0 mm 0.00 in0.0 mm
11:45 AM 47.8°F8.8°C 16.3°F-8.7°C 28% 1.6 mph WSW2.6 kmh WSW 4.5 mph7.2 kmh 30.14 in1020.7 mb 0.00 in0.0 mm 0.00 in0.0 mm 0.00 in0.0 mm
11:30 AM 48.6°F9.2°C 16.1°F-8.8°C 27% 1.6 mph W2.6 kmh W 3.1 mph5.0 kmh 30.13 in1020.3 mb 0.00 in0.0 mm 0.00 in0.0 mm 0.00 in0.0 mm
11:15 AM 48.6°F9.2°C 13.4°F-10.3°C 24% 2.2 mph W3.5 kmh W 4.5 mph7.2 kmh 30.13 in1020.3 mb 0.00 in0.0 mm 0.00 in0.0 mm 0.00 in0.0 mm
11:00 AM 47.8°F8.8°C 15.5°F-9.2°C 27% Calm Calm 3.1 mph5.0 kmh 30.14 in1020.7 mb 0.00 in0.0 mm 0.00 in0.0 mm 0.00 in0.0 mm
10:45 AM 44.6°F7.0°C 13.5°F-10.3°C 28% Calm Calm 2.2 mph3.5 kmh 30.13 in1020.3 mb 0.00 in0.0 mm 0.00 in0.0 mm 0.00 in0.0 mm
10:30 AM 43.2°F6.2°C 14.6°F-9.7°C 31% 2.2 mph W3.5 kmh W 3.8 mph6.1 kmh 30.12 in1020.0 mb 0.00 in0.0 mm 0.00 in0.0 mm 0.00 in0.0 mm
10:15 AM 42.3°F5.7°C 19.1°F-7.2°C 39% 1.6 mph WSW2.6 kmh WSW 2.2 mph3.5 kmh 30.12 in1020.0 mb 0.00 in0.0 mm 0.00 in0.0 mm 0.00 in0.0 mm
10:00 AM 39.6°F4.2°C 18.9°F-7.3°C 43% Calm Calm 2.2 mph3.5 kmh 30.11 in1019.6 mb 0.00 in0.0 mm 0.00 in0.0 mm 0.00 in0.0 mm
09:45 AM 36.1°F2.3°C 15.3°F-9.3°C 42% 1.6 mph NE2.6 kmh NE 2.2 mph3.5 kmh 30.12 in1020.0 mb 0.00 in0.0 mm 0.00 in0.0 mm 0.00 in0.0 mm
09:30 AM 32.0°F0.0°C 16.0°F-8.9°C 51% Calm Calm 3.1 mph5.0 kmh 30.11 in1019.6 mb 0.00 in0.0 mm 0.00 in0.0 mm 0.00 in0.0 mm
09:15 AM 30.2°F-1.0°C 15.2°F-9.3°C 53% 1.6 mph NE2.6 kmh NE 3.8 mph6.1 kmh 30.11 in1019.6 mb 0.00 in0.0 mm 0.00 in0.0 mm 0.00 in0.0 mm
09:00 AM 29.5°F-1.4°C 14.5°F-9.7°C 53% Calm Calm 3.8 mph6.1 kmh 30.10 in1019.3 mb 0.00 in0.0 mm 0.00 in0.0 mm 0.00 in0.0 mm
08:45 AM 28.8°F-1.8°C 14.3°F-9.8°C 54% 2.2 mph NE3.5 kmh NE 3.1 mph5.0 kmh 30.10 in1019.3 mb 0.00 in0.0 mm 0.00 in0.0 mm 0.00 in0.0 mm
08:30 AM 28.2°F-2.1°C 12.9°F-10.6°C 52% Calm Calm 2.2 mph3.5 kmh 30.09 in1019.0 mb 0.00 in0.0 mm 0.00 in0.0 mm 0.00 in0.0 mm
08:15 AM 27.7°F-2.4°C 12.4°F-10.9°C 52% 0.7 mph NE1.1 kmh NE 3.1 mph5.0 kmh 30.08 in1018.6 mb 0.00 in0.0 mm 0.00 in0.0 mm 0.00 in0.0 mm
08:00 AM 27.7°F-2.4°C 12.8°F-10.7°C 53% 2.2 mph NE3.5 kmh NE 3.1 mph5.0 kmh 30.08 in1018.6 mb 0.00 in0.0 mm 0.00 in0.0 mm 0.00 in0.0 mm
07:45 AM 28.2°F-2.1°C 12.9°F-10.6°C 52% 2.2 mph NE3.5 kmh NE 5.4 mph8.7 kmh 30.08 in1018.6 mb 0.00 in0.0 mm 0.00 in0.0 mm 0.00 in0.0 mm
07:30 AM 28.4°F-2.0°C 14.7°F-9.6°C 56% Calm Calm 3.1 mph5.0 kmh 30.07 in1018.3 mb 0.00 in0.0 mm 0.00 in0.0 mm 0.00 in0.0 mm
07:15 AM 28.6°F-1.9°C 14.5°F-9.7°C 55% 0.7 mph NE1.1 kmh NE 2.2 mph3.5 kmh 30.07 in1018.3 mb 0.00 in0.0 mm 0.00 in0.0 mm 0.00 in0.0 mm
07:00 AM 27.9°F-2.3°C 13.4°F-10.3°C 54% Calm Calm 2.2 mph3.5 kmh 30.07 in1018.3 mb 0.00 in0.0 mm 0.00 in0.0 mm 0.00 in0.0 mm
06:45 AM 27.9°F-2.3°C 13.0°F-10.6°C 53% 1.6 mph NE2.6 kmh NE 3.1 mph5.0 kmh 30.06 in1017.9 mb 0.00 in0.0 mm 0.00 in0.0 mm 0.00 in0.0 mm
06:30 AM 28.6°F-1.9°C 14.1°F-9.9°C 54% 1.6 mph NE2.6 kmh NE 3.1 mph5.0 kmh 30.05 in1017.6 mb 0.00 in0.0 mm 0.00 in0.0 mm 0.00 in0.0 mm
06:15 AM 28.8°F-1.8°C 14.7°F-9.6°C 55% 0.7 mph NE1.1 kmh NE 4.5 mph7.2 kmh 30.05 in1017.6 mb 0.00 in0.0 mm 0.00 in0.0 mm 0.00 in0.0 mm
06:00 AM 28.0°F-2.2°C 13.6°F-10.2°C 54% 1.6 mph NE2.6 kmh NE 3.8 mph6.1 kmh 30.05 in1017.6 mb 0.00 in0.0 mm 0.00 in0.0 mm 0.00 in0.0 mm
05:45 AM 27.9°F-2.3°C 13.0°F-10.6°C 53% 1.6 mph NE2.6 kmh NE 3.8 mph6.1 kmh 30.05 in1017.6 mb 0.00 in0.0 mm 0.00 in0.0 mm 0.00 in0.0 mm
05:30 AM 28.2°F-2.1°C 12.9°F-10.6°C 52% Calm Calm 3.1 mph5.0 kmh 30.04 in1017.3 mb 0.00 in0.0 mm 0.00 in0.0 mm 0.00 in0.0 mm
05:15 AM 28.2°F-2.1°C 12.5°F-10.8°C 51% 1.6 mph NE2.6 kmh NE 3.1 mph5.0 kmh 30.04 in1017.3 mb 0.00 in0.0 mm 0.00 in0.0 mm 0.00 in0.0 mm
05:00 AM 28.8°F-1.8°C 14.3°F-9.8°C 54% Calm Calm 3.1 mph5.0 kmh 30.04 in1017.3 mb 0.00 in0.0 mm 0.00 in0.0 mm 0.00 in0.0 mm
04:45 AM 28.8°F-1.8°C 14.3°F-9.8°C 54% 0.7 mph NE1.1 kmh NE 2.2 mph3.5 kmh 30.04 in1017.3 mb 0.00 in0.0 mm 0.00 in0.0 mm 0.00 in0.0 mm
04:30 AM 28.6°F-1.9°C 14.5°F-9.7°C 55% 0.7 mph NE1.1 kmh NE 2.2 mph3.5 kmh 30.04 in1017.3 mb 0.00 in0.0 mm 0.00 in0.0 mm 0.00 in0.0 mm
04:15 AM 28.8°F-1.8°C 14.3°F-9.8°C 54% Calm Calm 3.1 mph5.0 kmh 30.04 in1017.3 mb 0.00 in0.0 mm 0.00 in0.0 mm 0.00 in0.0 mm
04:00 AM 29.8°F-1.2°C 15.3°F-9.3°C 54% 1.6 mph NE2.6 kmh NE 4.5 mph7.2 kmh 30.05 in1017.6 mb 0.00 in0.0 mm 0.00 in0.0 mm 0.00 in0.0 mm
03:45 AM 28.0°F-2.2°C 13.6°F-10.2°C 54% 2.2 mph NE3.5 kmh NE 3.8 mph6.1 kmh 30.05 in1017.6 mb 0.00 in0.0 mm 0.00 in0.0 mm 0.00 in0.0 mm
03:30 AM 28.0°F-2.2°C 13.6°F-10.2°C 54% Calm Calm 3.1 mph5.0 kmh 30.04 in1017.3 mb 0.00 in0.0 mm 0.00 in0.0 mm 0.00 in0.0 mm
03:15 AM 27.9°F-2.3°C 13.4°F-10.3°C 54% 1.6 mph NE2.6 kmh NE 3.1 mph5.0 kmh 30.04 in1017.3 mb 0.00 in0.0 mm 0.00 in0.0 mm 0.00 in0.0 mm
03:00 AM 29.3°F-1.5°C 14.8°F-9.6°C 54% 2.2 mph NE3.5 kmh NE 3.1 mph5.0 kmh 30.04 in1017.3 mb 0.00 in0.0 mm 0.00 in0.0 mm 0.00 in0.0 mm
02:45 AM 30.2°F-1.0°C 14.3°F-9.8°C 51% 1.6 mph NE2.6 kmh NE 2.2 mph3.5 kmh 30.04 in1017.3 mb 0.00 in0.0 mm 0.00 in0.0 mm 0.00 in0.0 mm
02:30 AM 30.0°F-1.1°C 14.6°F-9.7°C 52% 2.2 mph NE3.5 kmh NE 3.1 mph5.0 kmh 30.03 in1016.9 mb 0.00 in0.0 mm 0.00 in0.0 mm 0.00 in0.0 mm
02:15 AM 30.6°F-0.8°C 11.8°F-11.2°C 45% 2.2 mph NE3.5 kmh NE 3.1 mph5.0 kmh 30.03 in1016.9 mb 0.00 in0.0 mm 0.00 in0.0 mm 0.00 in0.0 mm
02:00 AM 37.2°F2.9°C 12.8°F-10.7°C 36% Calm Calm 4.5 mph7.2 kmh 30.02 in1016.6 mb 0.00 in0.0 mm 0.00 in0.0 mm 0.00 in0.0 mm
01:45 AM 35.2°F1.8°C 14.5°F-9.7°C 42% Calm Calm 2.2 mph3.5 kmh 30.02 in1016.6 mb 0.00 in0.0 mm 0.00 in0.0 mm 0.00 in0.0 mm
01:30 AM 30.7°F-0.7°C 14.3°F-9.8°C 50% Calm Calm 0.7 mph1.1 kmh 30.02 in1016.6 mb 0.00 in0.0 mm 0.00 in0.0 mm 0.00 in0.0 mm
01:15 AM 30.4°F-0.9°C 14.5°F-9.7°C 51% Calm Calm 0.7 mph1.1 kmh 30.02 in1016.6 mb 0.00 in0.0 mm 0.00 in0.0 mm 0.00 in0.0 mm
01:00 AM 30.0°F-1.1°C 15.8°F-9.0°C 55% Calm Calm 3.1 mph5.0 kmh 30.02 in1016.6 mb 0.00 in0.0 mm 0.00 in0.0 mm 0.00 in0.0 mm
12:45 AM 29.3°F-1.5°C 15.6°F-9.1°C 56% Calm Calm 2.2 mph3.5 kmh 30.02 in1016.6 mb 0.00 in0.0 mm 0.00 in0.0 mm 0.00 in0.0 mm
12:30 AM 29.8°F-1.2°C 15.7°F-9.1°C 55% 1.6 mph NE2.6 kmh NE 3.1 mph5.0 kmh 30.02 in1016.6 mb 0.00 in0.0 mm 0.00 in0.0 mm 0.00 in0.0 mm
12:15 AM 29.8°F-1.2°C 15.7°F-9.1°C 55% 3.1 mph NE5.0 kmh NE 3.8 mph6.1 kmh 30.02 in1016.6 mb 0.00 in0.0 mm 0.00 in0.0 mm 0.00 in0.0 mm
12:00 AM 32.4°F0.2°C 16.7°F-8.5°C 52% 1.6 mph NE2.6 kmh NE 3.1 mph5.0 kmh 30.02 in1016.6 mb 0.00 in0.0 mm 0.00 in0.0 mm 0.00 in0.0 mm